createdAt,value
2023-07-14T00:01:24.553Z,2.60
2023-07-14T00:03:52.813Z,2.97
2023-07-14T00:06:20.959Z,3.20
2023-07-14T00:08:51.784Z,3.83
2023-07-14T00:11:22.307Z,3.23
2023-07-14T00:13:51.135Z,2.53
2023-07-14T00:16:24.704Z,1.83
2023-07-14T00:18:52.004Z,2.13
2023-07-14T00:21:25.354Z,1.90
2023-07-14T00:23:58.676Z,2.23
2023-07-14T00:26:25.593Z,2.13
2023-07-14T00:28:52.518Z,2.00
2023-07-14T00:31:21.425Z,1.77
2023-07-14T00:33:51.452Z,2.00
2023-07-14T00:36:18.724Z,2.00
2023-07-14T00:38:46.617Z,1.83
2023-07-14T00:41:21.608Z,2.00
2023-07-14T00:43:49.711Z,2.87
2023-07-14T00:46:30.563Z,3.33
2023-07-14T00:49:21.353Z,3.30
2023-07-14T00:51:49.090Z,2.83
2023-07-14T00:54:28.309Z,2.57
2023-07-14T00:56:56.830Z,3.40
2023-07-14T00:59:31.810Z,3.37
2023-07-14T01:02:23.988Z,2.90
2023-07-14T01:05:07.298Z,3.57
2023-07-14T01:07:44.930Z,3.63
2023-07-14T01:10:16.133Z,3.50
2023-07-14T01:12:58.775Z,3.70
2023-07-14T01:15:25.612Z,2.73
2023-07-14T01:17:54.585Z,2.70
2023-07-14T01:20:21.716Z,2.90
2023-07-14T01:23:03.615Z,2.40
2023-07-14T01:25:54.123Z,2.83
2023-07-14T01:28:21.565Z,2.40
2023-07-14T01:30:48.483Z,2.33
2023-07-14T01:33:17.692Z,2.13
2023-07-14T01:35:53.088Z,2.37
2023-07-14T01:38:21.153Z,2.50
2023-07-14T01:40:48.093Z,2.30
2023-07-14T01:43:15.021Z,2.40
2023-07-14T01:45:44.542Z,2.20
2023-07-14T01:48:19.670Z,2.50
2023-07-14T01:50:51.483Z,2.33
2023-07-14T01:53:32.859Z,2.23
2023-07-14T01:56:05.237Z,2.60
2023-07-14T01:59:07.422Z,2.70
2023-07-14T02:01:36.879Z,3.40
2023-07-14T02:04:11.517Z,3.13
2023-07-14T02:06:38.658Z,3.40
2023-07-14T02:09:05.784Z,3.83
2023-07-14T02:11:32.839Z,3.40
2023-07-14T02:13:59.723Z,3.20
2023-07-14T02:16:27.732Z,3.00
2023-07-14T02:18:57.049Z,2.80
2023-07-14T02:21:32.085Z,2.43
2023-07-14T02:24:00.871Z,3.33
2023-07-14T02:26:34.305Z,2.73
2023-07-14T02:29:01.494Z,2.57
2023-07-14T02:31:37.146Z,3.07
2023-07-14T02:34:04.216Z,3.07
2023-07-14T02:36:43.513Z,2.80
2023-07-14T02:39:11.236Z,2.40
2023-07-14T02:41:41.573Z,2.57
2023-07-14T02:44:12.647Z,2.50
2023-07-14T02:47:07.458Z,2.43
2023-07-14T02:49:34.343Z,2.93
2023-07-14T02:52:01.181Z,2.73
2023-07-14T02:54:28.274Z,2.80
2023-07-14T02:56:55.497Z,2.80
2023-07-14T02:59:22.854Z,2.73
2023-07-14T03:01:49.741Z,2.70
2023-07-14T03:04:16.783Z,3.20
2023-07-14T03:06:45.894Z,2.83
2023-07-14T03:09:14.361Z,2.90
2023-07-14T03:11:41.188Z,2.87
2023-07-14T03:14:09.400Z,3.00
2023-07-14T03:16:37.295Z,2.70
2023-07-14T03:19:04.331Z,2.17
2023-07-14T03:21:31.199Z,2.50
2023-07-14T03:24:00.035Z,2.50
2023-07-14T03:26:27.173Z,2.40
2023-07-14T03:28:54.034Z,2.37
2023-07-14T03:31:20.893Z,2.60
2023-07-14T03:33:47.946Z,2.07
2023-07-14T03:36:14.993Z,2.90
2023-07-14T03:38:45.991Z,2.80
2023-07-14T03:41:15.312Z,2.80
2023-07-14T03:43:42.794Z,2.57
2023-07-14T03:46:09.832Z,2.50
2023-07-14T03:48:37.036Z,2.63
2023-07-14T03:51:04.789Z,2.67
2023-07-14T03:53:32.050Z,2.27
2023-07-14T03:55:59.682Z,2.60
2023-07-14T03:58:26.552Z,2.50
2023-07-14T04:00:58.830Z,2.30
2023-07-14T04:03:25.758Z,2.17
2023-07-14T04:05:52.640Z,2.70
2023-07-14T04:08:19.526Z,2.83
2023-07-14T04:10:46.330Z,2.03
2023-07-14T04:13:13.266Z,2.30
2023-07-14T04:15:40.082Z,2.40
2023-07-14T04:18:07.006Z,2.70
2023-07-14T04:20:33.839Z,2.60
2023-07-14T04:23:00.814Z,2.50
2023-07-14T04:25:27.698Z,2.33
2023-07-14T04:27:55.001Z,2.70
2023-07-14T04:30:22.399Z,2.27
2023-07-14T04:32:49.351Z,2.90
2023-07-14T04:35:16.534Z,2.60
2023-07-14T04:37:43.381Z,2.47
2023-07-14T04:40:26.027Z,2.80
2023-07-14T04:42:57.901Z,2.50
2023-07-14T04:45:24.883Z,2.70
2023-07-14T04:47:52.382Z,3.03
2023-07-14T04:50:19.588Z,2.60
2023-07-14T04:52:46.608Z,3.20
2023-07-14T04:55:13.594Z,2.97
2023-07-14T04:57:40.634Z,2.60
2023-07-14T05:00:08.069Z,2.90
2023-07-14T05:02:37.583Z,2.70
2023-07-14T05:05:18.712Z,3.00
2023-07-14T05:07:45.813Z,3.30
2023-07-14T05:10:12.706Z,3.13
2023-07-14T05:12:39.768Z,2.97
2023-07-14T05:15:11.734Z,3.50
2023-07-14T05:17:40.086Z,3.50
2023-07-14T05:20:08.035Z,3.20
2023-07-14T05:22:35.084Z,2.83
2023-07-14T05:25:02.071Z,2.87
2023-07-14T05:27:28.903Z,2.93
2023-07-14T05:29:55.820Z,2.80
2023-07-14T05:32:23.436Z,2.77
2023-07-14T05:34:50.678Z,3.47
2023-07-14T05:37:18.486Z,2.80
2023-07-14T05:39:45.794Z,2.97
2023-07-14T05:42:13.299Z,2.50
2023-07-14T05:44:40.857Z,3.80
2023-07-14T05:47:08.303Z,2.93
2023-07-14T05:49:35.461Z,3.03
2023-07-14T05:52:02.716Z,3.60
2023-07-14T05:54:30.204Z,2.67
2023-07-14T05:56:57.452Z,2.97
2023-07-14T05:59:24.387Z,2.60
2023-07-14T06:01:51.317Z,2.70
2023-07-14T06:04:18.268Z,3.03
2023-07-14T06:06:45.154Z,3.03
2023-07-14T06:09:14.854Z,2.73
2023-07-14T06:11:42.514Z,2.70
2023-07-14T06:14:10.377Z,2.60
2023-07-14T06:16:38.397Z,3.37
2023-07-14T06:19:05.722Z,3.67
2023-07-14T06:21:32.793Z,2.67
2023-07-14T06:23:59.709Z,2.70
2023-07-14T06:26:27.120Z,2.50
2023-07-14T06:28:54.092Z,2.83
2023-07-14T06:31:21.058Z,2.70
2023-07-14T06:33:48.558Z,2.53
2023-07-14T06:36:15.710Z,2.47
2023-07-14T06:38:42.907Z,2.40
2023-07-14T06:41:10.038Z,2.13
2023-07-14T06:43:38.029Z,2.30
2023-07-14T06:46:04.981Z,2.73
2023-07-14T06:48:31.970Z,2.47
2023-07-14T06:50:58.880Z,2.10
2023-07-14T06:53:26.572Z,2.27
2023-07-14T06:55:53.884Z,2.50
2023-07-14T06:58:22.541Z,2.10
2023-07-14T07:00:49.419Z,2.90
2023-07-14T07:03:16.304Z,2.30
2023-07-14T07:05:45.515Z,2.10
2023-07-14T07:08:14.185Z,2.07
2023-07-14T07:10:42.942Z,2.17
2023-07-14T07:13:11.610Z,2.40
2023-07-14T07:15:38.564Z,1.93
2023-07-14T07:18:06.353Z,1.97
2023-07-14T07:20:39.522Z,2.37
2023-07-14T07:23:08.863Z,2.10
2023-07-14T07:25:35.955Z,2.30
2023-07-14T07:28:03.509Z,2.23
2023-07-14T07:30:32.816Z,2.20
2023-07-14T07:33:00.222Z,2.70
2023-07-14T07:35:28.081Z,1.80
2023-07-14T07:37:54.883Z,2.30
2023-07-14T07:40:21.946Z,2.47
2023-07-14T07:42:48.857Z,1.80
2023-07-14T07:45:17.613Z,1.70
2023-07-14T07:47:44.566Z,1.67
2023-07-14T07:50:11.584Z,1.80
2023-07-14T07:52:38.521Z,1.43
2023-07-14T07:55:08.170Z,1.50
2023-07-14T07:57:34.990Z,1.63
2023-07-14T08:00:02.256Z,1.93
2023-07-14T08:02:29.166Z,1.40
2023-07-14T08:04:56.253Z,1.20
2023-07-14T08:07:23.169Z,1.83
2023-07-14T08:09:50.495Z,1.40
2023-07-14T08:12:17.319Z,1.40
2023-07-14T08:14:55.216Z,1.53
2023-07-14T08:17:27.787Z,1.43
2023-07-14T08:19:55.324Z,1.37
2023-07-14T08:22:23.743Z,1.43
2023-07-14T08:24:51.381Z,1.17
2023-07-14T08:27:18.251Z,1.87
2023-07-14T08:29:45.022Z,1.40
2023-07-14T08:32:12.273Z,1.33
2023-07-14T08:34:39.148Z,1.50
2023-07-14T08:37:06.248Z,1.50
2023-07-14T08:39:34.386Z,1.70
2023-07-14T08:42:27.231Z,1.30
2023-07-14T08:45:04.504Z,1.50
2023-07-14T08:47:38.320Z,1.57
2023-07-14T08:50:18.347Z,1.53
2023-07-14T08:52:45.694Z,1.37
2023-07-14T08:55:40.236Z,1.30
2023-07-14T08:58:28.817Z,1.50
2023-07-14T09:01:06.550Z,1.40
2023-07-14T09:03:42.311Z,1.47
2023-07-14T09:06:18.318Z,1.47
2023-07-14T09:08:46.076Z,2.03
2023-07-14T09:11:51.086Z,1.60
2023-07-14T09:14:44.573Z,1.37
2023-07-14T09:17:18.858Z,1.30
2023-07-14T09:20:10.852Z,1.43
2023-07-14T09:22:59.534Z,1.40
2023-07-14T09:25:51.547Z,1.10
2023-07-14T09:28:30.319Z,1.70
2023-07-14T09:30:59.969Z,1.73
2023-07-14T09:33:29.409Z,1.43
2023-07-14T09:35:56.999Z,1.30
2023-07-14T09:38:27.796Z,1.27
2023-07-14T09:41:00.696Z,1.63
2023-07-14T09:43:27.708Z,1.60
2023-07-14T09:45:56.179Z,1.30
2023-07-14T09:48:32.222Z,1.50
2023-07-14T09:51:07.492Z,1.37
2023-07-14T09:53:37.762Z,1.43
2023-07-14T09:56:13.618Z,2.13
2023-07-14T09:58:54.449Z,1.70
2023-07-14T10:01:21.558Z,1.57
2023-07-14T10:03:52.903Z,1.57
2023-07-14T10:06:28.524Z,1.50
2023-07-14T10:09:05.753Z,1.70
2023-07-14T10:11:51.307Z,1.30
2023-07-14T10:14:36.408Z,1.50
2023-07-14T10:17:05.894Z,1.57
2023-07-14T10:19:40.218Z,1.50
2023-07-14T10:22:10.221Z,1.20
2023-07-14T10:24:39.026Z,1.50
2023-07-14T10:27:19.623Z,1.67
2023-07-14T10:29:59.822Z,1.50
2023-07-14T10:32:29.618Z,1.70
2023-07-14T10:35:20.518Z,1.43
2023-07-14T10:38:03.818Z,1.40
2023-07-14T10:40:38.216Z,1.30
2023-07-14T10:43:18.176Z,1.50
2023-07-14T10:46:04.827Z,1.73
2023-07-14T10:48:37.955Z,1.50
2023-07-14T10:51:11.748Z,1.30
2023-07-14T10:53:46.188Z,1.50
2023-07-14T10:56:40.190Z,1.47
2023-07-14T10:59:22.974Z,1.93
2023-07-14T11:02:13.542Z,1.53
2023-07-14T11:04:49.955Z,1.80
2023-07-14T11:07:35.941Z,1.67
2023-07-14T11:10:12.366Z,1.53
2023-07-14T11:12:56.856Z,1.47
2023-07-14T11:15:42.244Z,1.33
2023-07-14T11:18:36.738Z,1.90
2023-07-14T11:21:21.901Z,1.67
2023-07-14T11:24:19.066Z,1.60
2023-07-14T11:27:14.005Z,1.40
2023-07-14T11:29:55.038Z,1.90
2023-07-14T11:32:25.134Z,1.40
2023-07-14T11:35:26.157Z,1.60
2023-07-14T11:38:16.277Z,1.50
2023-07-14T11:40:47.132Z,1.33
2023-07-14T11:43:21.000Z,1.87
2023-07-14T11:46:00.770Z,1.80
2023-07-14T11:48:59.569Z,1.70
2023-07-14T11:51:53.004Z,1.40
2023-07-14T11:54:24.741Z,1.67
2023-07-14T11:57:19.486Z,1.70
2023-07-14T12:00:14.599Z,1.60
2023-07-14T12:02:44.612Z,1.50
2023-07-14T12:05:14.639Z,1.43
2023-07-14T12:08:03.673Z,1.73
2023-07-14T12:10:39.724Z,1.27
2023-07-14T12:13:29.588Z,1.40
2023-07-14T12:15:56.614Z,1.77
2023-07-14T12:18:23.402Z,2.23
2023-07-14T12:20:52.050Z,1.87
2023-07-14T12:23:29.672Z,1.67
2023-07-14T12:26:12.082Z,1.40
2023-07-14T12:28:39.670Z,1.80
2023-07-14T12:31:13.908Z,1.50
2023-07-14T12:33:41.134Z,1.53
2023-07-14T12:36:19.950Z,1.63
2023-07-14T12:38:52.830Z,1.50
2023-07-14T12:41:20.752Z,1.50
2023-07-14T12:43:52.556Z,1.47
2023-07-14T12:46:31.150Z,1.90
2023-07-14T12:49:35.188Z,1.60
2023-07-14T12:52:33.918Z,1.90
2023-07-14T12:55:03.198Z,1.57
2023-07-14T12:57:36.725Z,1.60
2023-07-14T13:00:24.553Z,1.80
2023-07-14T13:02:53.644Z,1.37
2023-07-14T13:05:35.378Z,1.70
2023-07-14T13:08:05.981Z,1.60
2023-07-14T13:10:42.473Z,1.67
2023-07-14T13:13:19.570Z,1.50
2023-07-14T13:15:49.052Z,1.60
2023-07-14T13:18:37.622Z,1.60
2023-07-14T13:21:25.780Z,1.40
2023-07-14T13:23:57.156Z,1.60
2023-07-14T13:26:24.059Z,1.50
2023-07-14T13:29:00.957Z,1.97
2023-07-14T13:31:41.774Z,1.53
2023-07-14T13:34:30.197Z,1.40
2023-07-14T13:36:57.793Z,1.83
2023-07-14T13:39:32.184Z,1.50
2023-07-14T13:42:02.144Z,1.80
2023-07-14T13:44:45.004Z,1.90
2023-07-14T13:47:27.111Z,2.00
2023-07-14T13:49:55.452Z,1.83
2023-07-14T13:52:32.818Z,1.63
2023-07-14T13:55:05.279Z,1.77
2023-07-14T13:57:32.821Z,1.50
2023-07-14T14:00:02.085Z,1.73
2023-07-14T14:02:43.212Z,1.40
2023-07-14T14:05:38.351Z,1.50
2023-07-14T14:08:10.015Z,1.60
2023-07-14T14:10:36.948Z,1.80
2023-07-14T14:13:05.691Z,1.53
2023-07-14T14:15:36.236Z,1.50
2023-07-14T14:18:17.921Z,1.57
2023-07-14T14:20:45.134Z,2.07
2023-07-14T14:23:16.923Z,1.30
2023-07-14T14:25:44.556Z,1.50
2023-07-14T14:28:11.554Z,1.40
2023-07-14T14:30:43.929Z,1.50
2023-07-14T14:33:23.501Z,1.97
2023-07-14T14:35:50.814Z,1.47
2023-07-14T14:38:41.675Z,1.50
2023-07-14T14:41:30.257Z,1.70
2023-07-14T14:43:57.196Z,1.90
2023-07-14T14:46:25.687Z,1.77
2023-07-14T14:48:53.020Z,1.80
2023-07-14T14:51:20.081Z,1.83
2023-07-14T14:53:46.960Z,1.73
2023-07-14T14:56:36.323Z,1.40
2023-07-14T14:59:09.519Z,1.50
2023-07-14T15:01:47.310Z,2.10
2023-07-14T15:04:21.162Z,1.20
2023-07-14T15:06:49.174Z,1.97
2023-07-14T15:09:17.642Z,1.90
2023-07-14T15:11:47.271Z,1.70
2023-07-14T15:14:32.043Z,1.87
2023-07-14T15:17:00.645Z,2.07
2023-07-14T15:19:27.818Z,1.63
2023-07-14T15:21:54.952Z,1.90
2023-07-14T15:24:21.767Z,1.90
2023-07-14T15:26:49.949Z,1.80
2023-07-14T15:29:23.000Z,1.77
2023-07-14T15:31:50.310Z,1.80
2023-07-14T15:34:19.290Z,1.77
2023-07-14T15:36:46.794Z,1.70
2023-07-14T15:39:16.124Z,1.70
2023-07-14T15:41:44.593Z,1.80
2023-07-14T15:44:18.347Z,1.47
2023-07-14T15:46:45.360Z,2.10
2023-07-14T15:49:18.998Z,2.03
2023-07-14T15:51:47.109Z,1.67
2023-07-14T15:54:35.682Z,1.93
2023-07-14T15:57:06.856Z,1.60
2023-07-14T15:59:35.399Z,1.73
2023-07-14T16:02:02.885Z,1.70
2023-07-14T16:04:29.771Z,1.80
2023-07-14T16:06:57.244Z,1.50
2023-07-14T16:09:32.380Z,1.80
2023-07-14T16:12:00.537Z,1.87
2023-07-14T16:14:27.392Z,1.70
2023-07-14T16:16:54.355Z,2.03
2023-07-14T16:19:21.363Z,2.10
2023-07-14T16:21:50.578Z,1.93
2023-07-14T16:24:24.025Z,1.90
2023-07-14T16:26:54.538Z,1.80
2023-07-14T16:29:22.255Z,1.87
2023-07-14T16:31:49.239Z,1.90
2023-07-14T16:34:16.210Z,1.50
2023-07-14T16:36:43.095Z,1.80
2023-07-14T16:39:25.081Z,2.13
2023-07-14T16:41:52.637Z,1.83
2023-07-14T16:44:19.767Z,2.17
2023-07-14T16:47:07.540Z,1.77
2023-07-14T16:49:34.391Z,2.20
2023-07-14T16:52:01.407Z,2.00
2023-07-14T16:54:36.279Z,2.17
2023-07-14T16:57:07.046Z,2.17
2023-07-14T16:59:34.000Z,2.13
2023-07-14T17:02:01.152Z,2.33
2023-07-14T17:04:28.925Z,2.10
2023-07-14T17:06:56.780Z,1.90
2023-07-14T17:09:26.576Z,1.73
2023-07-14T17:11:56.815Z,2.20
2023-07-14T17:14:33.053Z,1.83
2023-07-14T17:17:04.613Z,2.13
2023-07-14T17:19:32.091Z,1.90
2023-07-14T17:22:05.094Z,2.47
2023-07-14T17:24:32.159Z,2.10
2023-07-14T17:26:59.401Z,1.80
2023-07-14T17:29:32.482Z,1.87
2023-07-14T17:32:01.395Z,1.80
2023-07-14T17:34:30.227Z,1.97
2023-07-14T17:36:57.154Z,2.07
2023-07-14T17:39:35.934Z,1.73
2023-07-14T17:42:20.478Z,1.77
2023-07-14T17:44:47.856Z,1.70
2023-07-14T17:47:14.836Z,1.63
2023-07-14T17:49:42.373Z,2.10
2023-07-14T17:52:16.742Z,2.03
2023-07-14T17:54:43.994Z,1.70
2023-07-14T17:57:17.115Z,2.00
2023-07-14T17:59:44.083Z,2.10
2023-07-14T18:02:31.785Z,2.07
2023-07-14T18:04:59.218Z,1.87
2023-07-14T18:07:26.015Z,2.00
2023-07-14T18:09:55.147Z,1.97
2023-07-14T18:12:22.984Z,2.03
2023-07-14T18:14:50.201Z,1.93
2023-07-14T18:17:20.290Z,2.23
2023-07-14T18:19:48.988Z,2.03
2023-07-14T18:22:22.985Z,2.00
2023-07-14T18:24:49.954Z,2.00
2023-07-14T18:27:20.329Z,1.90
2023-07-14T18:29:48.264Z,1.73
2023-07-14T18:32:15.985Z,2.30
2023-07-14T18:34:42.932Z,2.00
2023-07-14T18:37:12.590Z,2.00
2023-07-14T18:39:41.299Z,1.70
2023-07-14T18:42:14.068Z,2.07
2023-07-14T18:44:41.032Z,1.53
2023-07-14T18:47:12.766Z,2.10
2023-07-14T18:49:39.918Z,1.70
2023-07-14T18:52:10.641Z,1.90
2023-07-14T18:54:37.676Z,2.20
2023-07-14T18:57:11.212Z,2.20
2023-07-14T18:59:38.626Z,2.23
2023-07-14T19:02:24.157Z,2.10
2023-07-14T19:04:51.140Z,2.07
2023-07-14T19:07:18.259Z,2.23
2023-07-14T19:09:45.538Z,2.40
2023-07-14T19:12:12.873Z,2.00
2023-07-14T19:14:40.079Z,2.20
2023-07-14T19:17:14.966Z,2.00
2023-07-14T19:19:42.413Z,2.10
2023-07-14T19:22:12.469Z,2.10
2023-07-14T19:24:39.558Z,2.00
2023-07-14T19:27:16.799Z,2.30
2023-07-14T19:29:44.591Z,2.00
2023-07-14T19:32:16.723Z,2.50
2023-07-14T19:34:49.107Z,2.20
2023-07-14T19:37:17.172Z,1.77
2023-07-14T19:39:44.223Z,2.70
2023-07-14T19:42:19.411Z,1.97
2023-07-14T19:44:47.534Z,2.50
2023-07-14T19:47:19.628Z,2.87
2023-07-14T19:49:47.309Z,3.10
2023-07-14T19:52:14.594Z,3.60
2023-07-14T19:54:42.457Z,3.00
2023-07-14T19:57:16.979Z,3.00
2023-07-14T19:59:45.176Z,3.20
2023-07-14T20:02:27.365Z,3.23
2023-07-14T20:04:55.940Z,3.40
2023-07-14T20:07:23.755Z,3.23
2023-07-14T20:09:50.884Z,2.77
2023-07-14T20:12:19.038Z,2.63
2023-07-14T20:14:45.995Z,2.80
2023-07-14T20:17:14.346Z,2.80
2023-07-14T20:19:41.389Z,3.07
2023-07-14T20:22:23.641Z,3.47
2023-07-14T20:24:51.525Z,3.33
2023-07-14T20:27:22.742Z,3.43
2023-07-14T20:29:50.347Z,3.20
2023-07-14T20:32:17.365Z,3.70
2023-07-14T20:34:44.353Z,3.63
2023-07-14T20:37:16.175Z,3.50
2023-07-14T20:39:43.667Z,3.00
2023-07-14T20:42:15.876Z,2.53
2023-07-14T20:44:45.388Z,3.10
2023-07-14T20:47:17.641Z,3.00
2023-07-14T20:49:46.371Z,3.00
2023-07-14T20:52:21.233Z,3.30
2023-07-14T20:54:48.424Z,3.20
2023-07-14T20:57:17.851Z,3.57
2023-07-14T20:59:45.535Z,3.90
2023-07-14T21:02:21.768Z,3.90
2023-07-14T21:04:49.187Z,4.00
2023-07-14T21:07:16.398Z,4.00
2023-07-14T21:09:44.657Z,4.20
2023-07-14T21:12:17.775Z,4.77
2023-07-14T21:14:44.821Z,3.73
2023-07-14T21:17:14.097Z,4.07
2023-07-14T21:19:41.709Z,4.30
2023-07-14T21:22:17.130Z,4.07
2023-07-14T21:24:44.569Z,5.07
2023-07-14T21:27:16.200Z,4.37
2023-07-14T21:29:43.442Z,4.30
2023-07-14T21:32:33.299Z,3.77
2023-07-14T21:35:03.282Z,4.63
2023-07-14T21:37:30.228Z,4.23
2023-07-14T21:39:57.468Z,4.17
2023-07-14T21:42:25.074Z,4.50
2023-07-14T21:44:52.051Z,4.30
2023-07-14T21:47:20.009Z,5.20
2023-07-14T21:49:46.870Z,5.10
2023-07-14T21:52:18.616Z,4.83
2023-07-14T21:54:45.875Z,4.80
2023-07-14T21:57:14.494Z,4.60
2023-07-14T21:59:41.243Z,4.77
2023-07-14T22:02:14.540Z,4.50
2023-07-14T22:04:41.724Z,5.03
2023-07-14T22:07:14.699Z,5.10
2023-07-14T22:09:41.605Z,4.87
2023-07-14T22:12:18.531Z,5.00
2023-07-14T22:14:46.053Z,4.70
2023-07-14T22:17:16.954Z,4.70
2023-07-14T22:19:44.433Z,4.87
2023-07-14T22:22:12.127Z,5.97
2023-07-14T22:24:39.496Z,5.47
2023-07-14T22:27:14.406Z,5.33
2023-07-14T22:29:41.654Z,5.07
2023-07-14T22:32:14.544Z,4.93
2023-07-14T22:34:42.791Z,5.60
2023-07-14T22:37:09.857Z,4.53
2023-07-14T22:39:38.708Z,4.50
2023-07-14T22:42:06.735Z,5.13
2023-07-14T22:44:33.542Z,5.40
2023-07-14T22:47:00.568Z,5.03
2023-07-14T22:49:28.220Z,5.33
2023-07-14T22:51:55.596Z,4.97
2023-07-14T22:54:23.330Z,4.67
2023-07-14T22:56:50.412Z,5.10
2023-07-14T22:59:17.534Z,4.67
2023-07-14T23:01:44.590Z,4.83
2023-07-14T23:04:13.446Z,4.47
2023-07-14T23:06:40.529Z,4.53
2023-07-14T23:09:08.407Z,4.70
2023-07-14T23:11:40.821Z,4.40
2023-07-14T23:14:11.601Z,5.00
2023-07-14T23:16:38.837Z,4.97
2023-07-14T23:19:06.096Z,4.93
2023-07-14T23:21:34.989Z,5.17
2023-07-14T23:24:04.150Z,5.20
2023-07-14T23:26:31.889Z,5.07
2023-07-14T23:28:58.862Z,4.80
2023-07-14T23:31:35.025Z,4.53
2023-07-14T23:34:04.529Z,4.87
2023-07-14T23:36:31.380Z,4.70
2023-07-14T23:41:29.469Z,4.47
2023-07-14T23:43:58.600Z,4.70
2023-07-14T23:46:26.590Z,4.83
2023-07-14T23:48:53.896Z,4.93
2023-07-14T23:51:31.297Z,5.03
2023-07-14T23:53:59.895Z,5.20
2023-07-14T23:56:27.684Z,4.73
2023-07-14T23:58:54.682Z,5.10
